createdAt,value
2019-04-10T00:00:56.549Z,432.69
2019-04-10T00:01:57.981Z,440.27
2019-04-10T00:02:57.729Z,436.13
2019-04-10T00:03:56.792Z,459.51
2019-04-10T00:04:56.522Z,437.21
2019-04-10T00:05:56.484Z,443.83
2019-04-10T00:07:08.453Z,449.08
2019-04-10T00:07:57.646Z,426.29
2019-04-10T00:08:56.783Z,440.31
2019-04-10T00:09:57.320Z,439.39
2019-04-10T00:10:56.438Z,438.62
2019-04-10T00:11:57.003Z,444.17
2019-04-10T00:12:56.449Z,443.33
2019-04-10T00:13:56.404Z,440.21
2019-04-10T00:14:56.770Z,446.56
2019-04-10T00:15:57.059Z,442.31
2019-04-10T00:16:56.521Z,431.91
2019-04-10T00:17:56.362Z,450.36
2019-04-10T00:18:56.347Z,440.43
2019-04-10T00:19:56.342Z,446.93
2019-04-10T00:20:56.690Z,440.53
2019-04-10T00:21:56.341Z,439.44
2019-04-10T00:22:56.310Z,449.76
2019-04-10T00:23:56.306Z,445.08
2019-04-10T00:24:56.629Z,436.04
2019-04-10T00:25:57.248Z,443.14
2019-04-10T00:26:56.467Z,432.12
2019-04-10T00:27:56.948Z,458.31
2019-04-10T00:28:56.262Z,434.62
2019-04-10T00:29:56.510Z,456.63
2019-04-10T00:30:56.233Z,433.67
2019-04-10T00:31:56.421Z,432.32
2019-04-10T00:32:56.450Z,449.73
2019-04-10T00:33:56.943Z,434.90
2019-04-10T00:34:56.205Z,439.17
2019-04-10T00:35:56.202Z,448.02
2019-04-10T00:36:56.189Z,447.33
2019-04-10T00:37:56.155Z,454.29
2019-04-10T00:38:56.141Z,439.11
2019-04-10T00:39:57.077Z,472.64
2019-04-10T00:40:56.108Z,446.35
2019-04-10T00:41:56.782Z,433.64
2019-04-10T00:42:57.209Z,445.48
2019-04-10T00:43:57.283Z,437.89
2019-04-10T00:44:56.381Z,451.97
2019-04-10T00:45:56.056Z,447.42
2019-04-10T00:46:56.945Z,429.39
2019-04-10T00:47:56.050Z,444.30
2019-04-10T00:48:56.480Z,431.39
2019-04-10T00:49:56.015Z,445.75
2019-04-10T00:50:57.088Z,440.05
2019-04-10T00:51:56.022Z,443.94
2019-04-10T00:52:56.750Z,428.09
2019-04-10T00:53:55.979Z,439.19
2019-04-10T00:54:55.972Z,441.71
2019-04-10T00:55:56.438Z,429.24
2019-04-10T00:56:56.961Z,441.75
2019-04-10T00:57:56.219Z,428.53
2019-04-10T00:58:55.922Z,440.23
2019-04-10T00:59:56.836Z,453.18
2019-04-10T01:00:55.891Z,442.02
2019-04-10T01:01:56.293Z,430.81
2019-04-10T01:02:56.817Z,427.96
2019-04-10T01:03:56.380Z,430.08
2019-04-10T01:04:55.848Z,429.68
2019-04-10T01:05:55.852Z,453.11
2019-04-10T01:06:56.686Z,432.19
2019-04-10T01:07:56.022Z,444.38
2019-04-10T01:08:55.861Z,448.35
2019-04-10T01:09:55.794Z,433.44
2019-04-10T01:10:56.798Z,425.08
2019-04-10T01:11:55.779Z,435.52
2019-04-10T01:12:56.582Z,436.32
2019-04-10T01:13:56.977Z,449.82
2019-04-10T01:14:56.152Z,442.08
2019-04-10T01:15:55.741Z,440.81
2019-04-10T01:16:55.809Z,435.34
2019-04-10T01:17:55.710Z,424.86
2019-04-10T01:18:55.701Z,434.10
2019-04-10T01:19:56.516Z,428.58
2019-04-10T01:20:55.745Z,429.60
2019-04-10T01:21:56.879Z,451.71
2019-04-10T01:22:55.660Z,443.75
2019-04-10T01:23:55.642Z,437.55
2019-04-10T01:24:55.643Z,438.11
2019-04-10T01:25:56.798Z,431.17
2019-04-10T01:26:55.893Z,437.54
2019-04-10T01:27:56.295Z,439.38
2019-04-10T01:28:55.678Z,427.66
2019-04-10T01:29:55.839Z,431.72
2019-04-10T01:30:55.579Z,429.59
2019-04-10T01:31:55.564Z,449.62
2019-04-10T01:32:56.503Z,451.48
2019-04-10T01:33:55.550Z,441.91
2019-04-10T01:34:55.931Z,438.54
2019-04-10T01:35:56.302Z,450.70
2019-04-10T01:36:56.412Z,427.79
2019-04-10T01:38:00.495Z,430.22
2019-04-10T01:38:56.499Z,437.04
2019-04-10T01:39:55.503Z,442.82
2019-04-10T01:40:55.470Z,428.41
2019-04-10T01:41:56.374Z,431.71
2019-04-10T01:43:09.699Z,433.47
2019-04-10T01:43:57.295Z,431.26
2019-04-10T01:44:55.442Z,448.57
2019-04-10T01:45:55.418Z,446.32
2019-04-10T01:46:55.405Z,426.81
2019-04-10T01:47:55.394Z,432.39
2019-04-10T01:48:55.561Z,437.74
2019-04-10T01:49:55.776Z,444.14
2019-04-10T01:50:55.354Z,445.07
2019-04-10T01:51:55.385Z,435.42
2019-04-10T01:52:55.618Z,434.11
2019-04-10T01:53:55.320Z,446.28
2019-04-10T01:54:55.555Z,438.40
2019-04-10T01:55:55.587Z,431.04
2019-04-10T01:56:55.657Z,439.18
2019-04-10T01:57:55.283Z,429.39
2019-04-10T01:58:55.280Z,438.11
2019-04-10T01:59:56.239Z,426.61
2019-04-10T02:00:56.259Z,433.22
2019-04-10T02:01:55.283Z,445.81
2019-04-10T02:02:55.919Z,445.89
2019-04-10T02:03:55.293Z,439.82
2019-04-10T02:04:56.466Z,425.18
2019-04-10T02:05:55.224Z,439.38
2019-04-10T02:06:55.922Z,461.54
2019-04-10T02:08:05.778Z,425.37
2019-04-10T02:08:56.402Z,428.01
2019-04-10T02:09:56.156Z,453.90
2019-04-10T02:10:55.165Z,432.82
2019-04-10T02:11:55.154Z,440.18
2019-04-10T02:12:55.131Z,450.30
2019-04-10T02:13:56.702Z,425.92
2019-04-10T02:14:55.091Z,427.45
2019-04-10T02:15:55.093Z,449.61
2019-04-10T02:16:55.069Z,428.07
2019-04-10T02:17:55.139Z,439.54
2019-04-10T02:18:55.063Z,429.58
2019-04-10T02:19:55.051Z,443.90
2019-04-10T02:20:55.672Z,428.40
2019-04-10T02:21:56.036Z,421.92
2019-04-10T02:22:56.129Z,445.98
2019-04-10T02:23:55.008Z,434.47
2019-04-10T02:24:55.568Z,430.61
2019-04-10T02:25:55.004Z,431.10
2019-04-10T02:26:56.032Z,433.21
2019-04-10T02:27:54.954Z,434.34
2019-04-10T02:28:55.490Z,445.27
2019-04-10T02:29:55.751Z,436.33
2019-04-10T02:30:56.537Z,456.26
2019-04-10T02:31:55.556Z,435.71
2019-04-10T02:32:55.147Z,417.86
2019-04-10T02:33:56.955Z,419.48
2019-04-10T02:34:55.253Z,426.62
2019-04-10T02:35:54.979Z,457.07
2019-04-10T02:36:55.353Z,443.23
2019-04-10T02:37:56.200Z,439.86
2019-04-10T02:39:08.461Z,437.14
2019-04-10T02:39:59.950Z,430.82
2019-04-10T02:40:57.410Z,438.42
2019-04-10T02:41:56.055Z,434.57
2019-04-10T02:42:54.912Z,430.93
2019-04-10T02:43:55.587Z,422.58
2019-04-10T02:44:54.780Z,451.21
2019-04-10T02:45:55.701Z,427.76
2019-04-10T02:46:55.547Z,439.56
2019-04-10T02:47:55.124Z,434.92
2019-04-10T02:48:55.969Z,445.26
2019-04-10T02:49:56.546Z,418.58
2019-04-10T02:50:55.493Z,464.32
2019-04-10T02:51:55.051Z,431.93
2019-04-10T02:52:55.164Z,419.23
2019-04-10T02:53:56.134Z,432.06
2019-04-10T02:54:54.650Z,426.74
2019-04-10T02:55:55.830Z,439.95
2019-04-10T02:56:54.927Z,423.85
2019-04-10T02:57:56.256Z,433.25
2019-04-10T02:58:54.647Z,439.60
2019-04-10T02:59:55.804Z,434.21
2019-04-10T03:00:56.221Z,436.22
2019-04-10T03:01:56.095Z,440.93
2019-04-10T03:02:55.528Z,426.90
2019-04-10T03:03:55.595Z,437.98
2019-04-10T03:04:55.148Z,443.59
2019-04-10T03:05:54.566Z,429.23
2019-04-10T03:06:55.565Z,431.76
2019-04-10T03:07:55.823Z,448.33
2019-04-10T03:09:08.559Z,428.37
2019-04-10T03:10:06.050Z,439.00
2019-04-10T03:11:00.441Z,436.04
2019-04-10T03:11:55.625Z,437.48
2019-04-10T03:12:54.529Z,432.32
2019-04-10T03:13:55.601Z,434.45
2019-04-10T03:14:55.066Z,428.33
2019-04-10T03:15:55.888Z,422.12
2019-04-10T03:16:55.437Z,438.54
2019-04-10T03:17:54.564Z,415.60
2019-04-10T03:18:54.891Z,425.72
2019-04-10T03:19:54.389Z,430.39
2019-04-10T03:20:54.447Z,426.25
2019-04-10T03:21:55.472Z,434.21
2019-04-10T03:22:54.399Z,422.35
2019-04-10T03:23:54.349Z,425.31
2019-04-10T03:24:54.725Z,435.32
2019-04-10T03:25:54.343Z,418.19
2019-04-10T03:26:54.330Z,429.58
2019-04-10T03:27:54.526Z,439.03
2019-04-10T03:28:54.363Z,419.15
2019-04-10T03:29:54.280Z,424.93
2019-04-10T03:30:55.935Z,427.71
2019-04-10T03:31:56.515Z,427.84
2019-04-10T03:32:59.686Z,424.47
2019-04-10T03:33:56.009Z,431.97
2019-04-10T03:34:54.909Z,428.22
2019-04-10T03:35:54.870Z,433.73
2019-04-10T03:36:54.230Z,439.34
2019-04-10T03:37:54.185Z,435.09
2019-04-10T03:39:00.148Z,416.32
2019-04-10T03:39:55.322Z,425.01
2019-04-10T03:40:54.159Z,426.20
2019-04-10T03:41:54.644Z,426.60
2019-04-10T03:42:55.029Z,420.23
2019-04-10T03:43:54.320Z,445.20
2019-04-10T03:44:54.877Z,424.65
2019-04-10T03:45:55.126Z,428.48
2019-04-10T03:46:55.193Z,436.44
2019-04-10T03:47:54.099Z,421.33
2019-04-10T03:48:54.077Z,418.82
2019-04-10T03:49:54.107Z,433.45
2019-04-10T03:50:54.283Z,452.39
2019-04-10T03:51:54.588Z,449.28
2019-04-10T03:52:54.064Z,440.83
2019-04-10T03:53:54.270Z,431.84
2019-04-10T03:54:54.505Z,417.67
2019-04-10T03:55:54.014Z,425.55
2019-04-10T03:56:54.172Z,432.42
2019-04-10T03:57:54.000Z,423.26
2019-04-10T03:58:53.957Z,450.27
2019-04-10T03:59:53.969Z,454.04
2019-04-10T04:00:54.272Z,440.36
2019-04-10T04:01:53.946Z,423.55
2019-04-10T04:02:53.941Z,424.98
2019-04-10T04:03:53.913Z,420.59
2019-04-10T04:04:53.909Z,430.48
2019-04-10T04:05:53.892Z,420.63
2019-04-10T04:06:53.898Z,432.11
2019-04-10T04:07:54.759Z,449.08
2019-04-10T04:09:03.241Z,421.04
2019-04-10T04:09:55.868Z,421.97
2019-04-10T04:10:53.839Z,421.58
2019-04-10T04:11:53.823Z,432.81
2019-04-10T04:12:53.841Z,456.58
2019-04-10T04:13:53.808Z,428.54
2019-04-10T04:14:54.901Z,433.98
2019-04-10T04:15:54.696Z,426.93
2019-04-10T04:16:53.784Z,441.45
2019-04-10T04:17:54.735Z,440.72
2019-04-10T04:18:53.760Z,429.11
2019-04-10T04:19:54.590Z,444.79
2019-04-10T04:20:53.748Z,447.29
2019-04-10T04:21:54.344Z,433.44
2019-04-10T04:22:54.707Z,438.95
2019-04-10T04:23:53.694Z,426.60
2019-04-10T04:24:53.682Z,419.84
2019-04-10T04:25:54.668Z,434.10
2019-04-10T04:26:53.669Z,432.08
2019-04-10T04:27:53.917Z,448.46
2019-04-10T04:28:53.800Z,428.40
2019-04-10T04:29:53.657Z,424.15
2019-04-10T04:30:53.901Z,424.86
2019-04-10T04:31:54.514Z,425.18
2019-04-10T04:32:53.934Z,436.90
2019-04-10T04:33:53.592Z,437.77
2019-04-10T04:34:54.195Z,430.14
2019-04-10T04:35:53.575Z,421.04
2019-04-10T04:36:53.644Z,418.24
2019-04-10T04:37:53.570Z,437.72
2019-04-10T04:38:53.568Z,423.02
2019-04-10T04:39:54.296Z,431.72
2019-04-10T04:40:54.716Z,426.07
2019-04-10T04:41:53.504Z,432.21
2019-04-10T04:42:53.643Z,424.03
2019-04-10T04:43:53.473Z,435.66
2019-04-10T04:44:54.216Z,421.74
2019-04-10T04:45:53.475Z,426.00
2019-04-10T04:46:53.465Z,431.79
2019-04-10T04:47:54.029Z,445.79
2019-04-10T04:48:54.317Z,431.67
2019-04-10T04:49:54.332Z,424.00
2019-04-10T04:50:54.338Z,419.01
2019-04-10T04:51:53.400Z,429.88
2019-04-10T04:52:53.669Z,427.66
2019-04-10T04:53:53.364Z,432.01
2019-04-10T04:54:53.396Z,428.98
2019-04-10T04:55:53.461Z,449.57
2019-04-10T04:56:53.341Z,416.82
2019-04-10T04:57:53.510Z,425.10
2019-04-10T04:58:53.900Z,436.08
2019-04-10T04:59:53.313Z,423.52
2019-04-10T05:00:54.202Z,437.96
2019-04-10T05:01:53.283Z,440.63
2019-04-10T05:02:53.676Z,427.63
2019-04-10T05:03:53.276Z,453.93
2019-04-10T05:04:53.554Z,432.76
2019-04-10T05:05:53.995Z,422.66
2019-04-10T05:06:53.223Z,420.79
2019-04-10T05:07:59.338Z,429.00
2019-04-10T05:08:54.795Z,436.57
2019-04-10T05:09:53.209Z,427.11
2019-04-10T05:10:53.795Z,425.18
2019-04-10T05:11:53.190Z,431.38
2019-04-10T05:12:53.601Z,430.71
2019-04-10T05:13:53.153Z,422.97
2019-04-10T05:14:53.642Z,445.49
2019-04-10T05:15:53.382Z,425.89
2019-04-10T05:16:53.118Z,430.52
2019-04-10T05:17:53.530Z,425.87
2019-04-10T05:18:54.055Z,415.04
2019-04-10T05:19:53.090Z,421.73
2019-04-10T05:20:53.069Z,441.57
2019-04-10T05:21:53.982Z,429.04
2019-04-10T05:22:54.550Z,412.90
2019-04-10T05:23:53.347Z,428.01
2019-04-10T05:24:53.040Z,429.54
2019-04-10T05:25:53.969Z,421.97
2019-04-10T05:26:53.548Z,439.33
2019-04-10T05:27:53.257Z,426.67
2019-04-10T05:28:53.038Z,438.82
2019-04-10T05:29:53.480Z,433.77
2019-04-10T05:30:52.980Z,430.29
2019-04-10T05:31:53.202Z,421.92
2019-04-10T05:32:52.953Z,421.99
2019-04-10T05:33:53.281Z,434.24
2019-04-10T05:34:52.933Z,418.72
2019-04-10T05:35:52.936Z,416.63
2019-04-10T05:36:52.915Z,445.97
2019-04-10T05:37:54.071Z,431.80
2019-04-10T05:38:52.897Z,423.36
2019-04-10T05:39:53.875Z,423.59
2019-04-10T05:40:52.851Z,425.48
2019-04-10T05:41:52.873Z,423.01
2019-04-10T05:42:53.303Z,428.01
2019-04-10T05:43:53.025Z,428.49
2019-04-10T05:44:52.837Z,435.11
2019-04-10T05:45:53.035Z,424.47
2019-04-10T05:46:52.792Z,428.94
2019-04-10T05:47:52.881Z,428.11
2019-04-10T05:48:52.799Z,434.83
2019-04-10T05:49:53.334Z,432.30
2019-04-10T05:50:59.161Z,423.39
2019-04-10T05:51:53.740Z,426.31
2019-04-10T05:52:53.867Z,431.13
2019-04-10T05:53:54.223Z,430.22
2019-04-10T05:54:52.724Z,432.75
2019-04-10T05:55:53.730Z,424.90
2019-04-10T05:56:52.690Z,425.92
2019-04-10T05:57:53.159Z,432.79
2019-04-10T05:58:52.671Z,428.76
2019-04-10T05:59:52.646Z,419.37
2019-04-10T06:00:53.384Z,417.61
2019-04-10T06:01:52.781Z,435.66
2019-04-10T06:02:52.650Z,419.06
2019-04-10T06:03:52.651Z,424.47
2019-04-10T06:04:53.767Z,418.69
2019-04-10T06:05:52.688Z,416.54
2019-04-10T06:06:52.739Z,428.76
2019-04-10T06:07:53.731Z,427.74
2019-04-10T06:08:52.572Z,435.92
2019-04-10T06:09:58.650Z,419.71
2019-04-10T06:10:53.537Z,437.56
2019-04-10T06:11:53.173Z,429.68
2019-04-10T06:12:53.036Z,425.18
2019-04-10T06:13:52.781Z,424.00
2019-04-10T06:14:52.772Z,431.84
2019-04-10T06:15:52.983Z,422.74
2019-04-10T06:16:53.079Z,426.01
2019-04-10T06:17:52.446Z,422.62
2019-04-10T06:18:53.351Z,429.30
2019-04-10T06:19:53.067Z,426.53
2019-04-10T06:20:52.415Z,425.15
2019-04-10T06:21:52.481Z,421.85
2019-04-10T06:22:52.771Z,430.72
2019-04-10T06:23:52.404Z,423.40
2019-04-10T06:24:52.372Z,433.48
2019-04-10T06:25:52.379Z,425.11
2019-04-10T06:26:52.363Z,426.90
2019-04-10T06:27:52.651Z,427.52
2019-04-10T06:28:52.686Z,435.07
2019-04-10T06:29:53.166Z,424.89
2019-04-10T06:30:52.384Z,421.88
2019-04-10T06:31:52.753Z,424.20
2019-04-10T06:32:52.281Z,425.96
2019-04-10T06:33:52.798Z,429.78
2019-04-10T06:34:52.289Z,424.22
2019-04-10T06:35:53.070Z,421.71
2019-04-10T06:36:53.394Z,429.42
2019-04-10T06:37:52.530Z,422.29
2019-04-10T06:38:53.025Z,420.27
2019-04-10T06:40:04.155Z,423.29
2019-04-10T06:40:54.358Z,435.70
2019-04-10T06:41:52.183Z,433.83
2019-04-10T06:42:54.902Z,428.54
2019-04-10T06:43:53.100Z,421.16
2019-04-10T06:44:52.377Z,424.13
2019-04-10T06:45:52.384Z,422.85
2019-04-10T06:46:52.907Z,422.27
2019-04-10T06:47:52.955Z,424.37
2019-04-10T06:48:52.133Z,423.57
2019-04-10T06:49:52.615Z,421.47
2019-04-10T06:50:52.101Z,416.92
2019-04-10T06:51:52.069Z,419.58
2019-04-10T06:52:52.077Z,420.91
2019-04-10T06:54:01.852Z,416.48
2019-04-10T06:54:54.027Z,414.38
2019-04-10T06:55:52.368Z,417.91
2019-04-10T06:56:52.532Z,416.78
2019-04-10T06:57:57.286Z,422.93
2019-04-10T06:58:53.011Z,416.65
2019-04-10T06:59:52.388Z,415.16
2019-04-10T07:00:54.597Z,418.20
2019-04-10T07:01:54.937Z,408.46
2019-04-10T07:02:52.691Z,418.96
2019-04-10T07:04:01.913Z,420.42
2019-04-10T07:04:55.764Z,413.63
2019-04-10T07:06:02.409Z,409.86
2019-04-10T07:07:01.803Z,402.37
2019-04-10T07:07:57.526Z,407.73
2019-04-10T07:08:53.478Z,412.14
2019-04-10T07:09:54.527Z,404.47
2019-04-10T07:10:58.075Z,410.68
2019-04-10T07:11:56.779Z,406.95
2019-04-10T07:12:53.383Z,416.28
2019-04-10T07:13:53.793Z,398.67
2019-04-10T07:14:56.501Z,413.62
2019-04-10T07:15:57.124Z,396.61
2019-04-10T07:16:52.830Z,417.66
2019-04-10T07:17:51.820Z,417.21
2019-04-10T07:18:52.008Z,397.66
2019-04-10T07:19:51.773Z,413.08
2019-04-10T07:20:51.756Z,412.30
2019-04-10T07:21:51.745Z,404.62
2019-04-10T07:22:51.757Z,413.02
2019-04-10T07:23:52.442Z,399.46
2019-04-10T07:24:52.281Z,413.44
2019-04-10T07:25:51.987Z,383.03
2019-04-10T07:26:51.692Z,401.97
2019-04-10T07:27:52.207Z,405.10
2019-04-10T07:28:51.865Z,424.64
2019-04-10T07:29:57.339Z,411.28
2019-04-10T07:30:56.804Z,420.38
2019-04-10T07:31:52.906Z,398.96
2019-04-10T07:32:51.660Z,432.79
2019-04-10T07:33:52.252Z,400.95
2019-04-10T07:34:56.435Z,419.35
2019-04-10T07:35:55.170Z,412.90
2019-04-10T07:36:51.974Z,428.37
2019-04-10T07:37:54.362Z,420.77
2019-04-10T07:38:55.876Z,412.37
2019-04-10T07:39:51.551Z,417.61
2019-04-10T07:40:51.548Z,420.51
2019-04-10T07:41:51.537Z,423.08
2019-04-10T07:42:52.536Z,414.45
2019-04-10T07:43:54.355Z,417.94
2019-04-10T07:44:51.495Z,422.06
2019-04-10T07:45:51.475Z,418.02
2019-04-10T07:46:51.462Z,417.43
2019-04-10T07:47:51.759Z,416.63
2019-04-10T07:48:52.469Z,423.76
2019-04-10T07:49:52.433Z,416.93
2019-04-10T07:50:51.614Z,414.94
2019-04-10T07:51:51.987Z,411.24
2019-04-10T07:52:52.120Z,409.74
2019-04-10T07:53:51.395Z,430.20
2019-04-10T07:54:52.358Z,422.70
2019-04-10T07:56:02.280Z,429.44
2019-04-10T07:56:52.557Z,424.28
2019-04-10T07:57:51.769Z,421.09
2019-04-10T07:58:51.736Z,413.18
2019-04-10T07:59:52.572Z,436.44
2019-04-10T08:00:51.435Z,404.30
2019-04-10T08:01:51.725Z,431.45
2019-04-10T08:02:51.296Z,434.49
2019-04-10T08:03:52.508Z,438.68
2019-04-10T08:04:51.662Z,417.58
2019-04-10T08:05:51.253Z,416.14
2019-04-10T08:06:52.257Z,436.52
2019-04-10T08:07:53.411Z,423.89
2019-04-10T08:08:51.318Z,418.14
2019-04-10T08:09:51.900Z,429.82
2019-04-10T08:10:51.234Z,427.78
2019-04-10T08:11:51.198Z,427.89
2019-04-10T08:12:53.930Z,429.97
2019-04-10T08:13:51.210Z,414.56
2019-04-10T08:14:52.055Z,422.24
2019-04-10T08:15:52.226Z,440.44
2019-04-10T08:16:51.866Z,443.13
2019-04-10T08:17:51.447Z,433.57
2019-04-10T08:18:52.098Z,424.80
2019-04-10T08:19:51.106Z,417.06
2019-04-10T08:20:51.104Z,424.26
2019-04-10T08:21:51.083Z,430.67
2019-04-10T08:22:51.230Z,431.73
2019-04-10T08:23:51.640Z,434.32
2019-04-10T08:24:51.292Z,441.01
2019-04-10T08:25:51.662Z,441.78
2019-04-10T08:26:51.034Z,438.37
2019-04-10T08:27:52.197Z,436.49
2019-04-10T08:28:51.704Z,431.25
2019-04-10T08:29:50.987Z,425.49
2019-04-10T08:30:50.997Z,435.62
2019-04-10T08:31:50.989Z,439.77
2019-04-10T08:32:57.119Z,436.72
2019-04-10T08:33:52.680Z,436.00
2019-04-10T08:34:51.316Z,441.09
2019-04-10T08:35:50.919Z,435.12
2019-04-10T08:36:52.829Z,445.06
2019-04-10T08:37:50.956Z,435.43
2019-04-10T08:38:50.927Z,436.39
2019-04-10T08:39:52.419Z,438.86
2019-04-10T08:40:50.883Z,435.52
2019-04-10T08:41:50.887Z,438.74
2019-04-10T08:42:51.318Z,435.67
2019-04-10T08:43:50.840Z,431.82
2019-04-10T08:44:51.906Z,436.29
2019-04-10T08:45:52.228Z,428.95
2019-04-10T08:46:50.812Z,432.60
2019-04-10T08:47:50.906Z,433.99
2019-04-10T08:48:51.654Z,442.16
2019-04-10T08:49:50.769Z,441.99
2019-04-10T08:50:50.777Z,416.04
2019-04-10T08:51:50.757Z,435.74
2019-04-10T08:52:50.766Z,434.06
2019-04-10T08:53:51.152Z,435.27
2019-04-10T08:54:51.199Z,436.71
2019-04-10T08:55:50.704Z,438.79
2019-04-10T08:56:50.688Z,433.85
2019-04-10T08:57:50.730Z,437.21
2019-04-10T08:58:51.709Z,425.15
2019-04-10T08:59:50.678Z,427.83
2019-04-10T09:00:52.398Z,411.19
2019-04-10T09:01:50.656Z,419.48
2019-04-10T09:02:50.653Z,407.53
2019-04-10T09:03:50.999Z,434.02
2019-04-10T09:04:50.615Z,430.42
2019-04-10T09:05:51.091Z,412.08
2019-04-10T09:06:51.537Z,419.81
2019-04-10T09:07:50.714Z,432.66
2019-04-10T09:08:50.968Z,426.64
2019-04-10T09:09:50.575Z,437.65
2019-04-10T09:10:50.552Z,442.08
2019-04-10T09:11:51.607Z,401.83
2019-04-10T09:12:51.638Z,417.36
2019-04-10T09:13:50.660Z,435.85
2019-04-10T09:14:51.684Z,426.18
2019-04-10T09:15:50.489Z,429.11
2019-04-10T09:16:51.089Z,419.65
2019-04-10T09:17:51.429Z,435.82
2019-04-10T09:18:51.553Z,430.33
2019-04-10T09:19:50.439Z,442.03
2019-04-10T09:20:51.013Z,436.04
2019-04-10T09:21:50.443Z,428.68
2019-04-10T09:23:14.504Z,441.22
2019-04-10T09:23:53.411Z,412.51
2019-04-10T09:24:50.767Z,438.03
2019-04-10T09:25:51.271Z,424.87
2019-04-10T09:26:50.802Z,444.17
2019-04-10T09:27:50.354Z,431.06
2019-04-10T09:28:50.793Z,447.96
2019-04-10T09:29:50.331Z,419.90
2019-04-10T09:30:51.292Z,428.48
2019-04-10T09:31:50.367Z,436.82
2019-04-10T09:32:50.702Z,431.02
2019-04-10T09:33:51.485Z,417.27
2019-04-10T09:34:50.280Z,417.50
2019-04-10T09:35:50.920Z,419.62
2019-04-10T09:36:51.355Z,421.45
2019-04-10T09:37:50.460Z,423.09
2019-04-10T09:38:50.758Z,429.11
2019-04-10T09:39:51.968Z,426.27
2019-04-10T09:40:50.210Z,424.68
2019-04-10T09:41:50.246Z,431.89
2019-04-10T09:42:50.242Z,428.70
2019-04-10T09:43:50.188Z,431.24
2019-04-10T09:44:50.698Z,403.02
2019-04-10T09:45:51.394Z,397.99
2019-04-10T09:46:50.157Z,410.95
2019-04-10T09:47:50.273Z,391.61
2019-04-10T09:48:50.113Z,426.15
2019-04-10T09:49:51.332Z,403.39
2019-04-10T09:50:50.304Z,402.48
2019-04-10T09:51:50.236Z,428.93
2019-04-10T09:52:50.378Z,427.04
2019-04-10T09:53:51.088Z,401.99
2019-04-10T09:54:50.998Z,421.37
2019-04-10T09:55:50.060Z,426.72
2019-04-10T09:56:50.598Z,418.83
2019-04-10T09:57:50.021Z,433.21
2019-04-10T09:58:50.016Z,408.94
2019-04-10T09:59:50.029Z,432.19
2019-04-10T10:00:50.276Z,398.91
2019-04-10T10:01:51.287Z,380.18
2019-04-10T10:02:50.717Z,400.77
2019-04-10T10:03:50.803Z,407.36
2019-04-10T10:04:50.456Z,403.44
2019-04-10T10:05:50.929Z,394.04
2019-04-10T10:06:49.941Z,402.34
2019-04-10T10:07:50.666Z,401.22
2019-04-10T10:08:50.188Z,365.64
2019-04-10T10:09:49.930Z,394.93
2019-04-10T10:10:49.893Z,362.32
2019-04-10T10:11:49.873Z,404.49
2019-04-10T10:12:50.566Z,383.06
2019-04-10T10:13:50.183Z,359.53
2019-04-10T10:14:49.873Z,419.78
2019-04-10T10:15:49.847Z,335.81
2019-04-10T10:16:50.477Z,436.24
2019-04-10T10:17:49.823Z,439.24
2019-04-10T10:18:49.913Z,435.95
2019-04-10T10:19:50.202Z,411.67
2019-04-10T10:20:50.250Z,391.99
2019-04-10T10:21:50.522Z,442.98
2019-04-10T10:22:49.772Z,428.28
2019-04-10T10:23:49.870Z,386.98
2019-04-10T10:24:50.913Z,386.42
2019-04-10T10:25:49.760Z,410.68
2019-04-10T10:26:49.737Z,441.28
2019-04-10T10:27:50.886Z,441.56
2019-04-10T10:28:49.710Z,404.23
2019-04-10T10:29:51.819Z,388.37
2019-04-10T10:30:49.682Z,451.50
2019-04-10T10:31:51.213Z,456.04
2019-04-10T10:32:49.687Z,446.38
2019-04-10T10:33:50.120Z,436.52
2019-04-10T10:34:50.414Z,449.49
2019-04-10T10:35:49.693Z,416.74
2019-04-10T10:36:52.829Z,429.77
2019-04-10T10:37:50.482Z,418.96
2019-04-10T10:39:02.125Z,464.82
2019-04-10T10:39:50.694Z,441.20
2019-04-10T10:40:50.734Z,438.58
2019-04-10T10:41:49.597Z,397.44
2019-04-10T10:42:49.725Z,389.04
2019-04-10T10:43:49.538Z,437.47
2019-04-10T10:44:50.033Z,415.70
2019-04-10T10:45:49.542Z,407.01
2019-04-10T10:46:49.586Z,413.85
2019-04-10T10:47:50.530Z,457.10
2019-04-10T10:48:49.518Z,406.33
2019-04-10T10:49:49.485Z,467.90
2019-04-10T10:50:49.870Z,439.44
2019-04-10T10:51:49.463Z,443.02
2019-04-10T10:52:50.084Z,449.13
2019-04-10T10:53:49.464Z,463.14
2019-04-10T10:54:49.447Z,473.53
2019-04-10T10:55:49.746Z,456.67
2019-04-10T10:56:49.429Z,466.74
2019-04-10T10:57:49.404Z,427.98
2019-04-10T10:58:50.270Z,476.70
2019-04-10T10:59:49.493Z,458.03
2019-04-10T11:00:50.096Z,464.82
2019-04-10T11:01:49.353Z,455.31
2019-04-10T11:02:49.861Z,483.16
2019-04-10T11:03:49.330Z,455.94
2019-04-10T11:04:49.327Z,446.32
2019-04-10T11:05:49.317Z,450.96
2019-04-10T11:06:55.992Z,468.73
2019-04-10T11:07:51.503Z,457.75
2019-04-10T11:08:49.314Z,448.01
2019-04-10T11:09:50.303Z,470.97
2019-04-10T11:10:55.253Z,461.65
2019-04-10T11:11:50.366Z,466.23
2019-04-10T11:12:50.765Z,477.38
2019-04-10T11:13:49.220Z,465.13
2019-04-10T11:14:49.726Z,464.21
2019-04-10T11:15:49.984Z,482.67
2019-04-10T11:16:49.462Z,473.59
2019-04-10T11:17:50.037Z,457.92
2019-04-10T11:18:49.183Z,460.02
2019-04-10T11:19:49.184Z,474.16
2019-04-10T11:20:49.903Z,456.16
2019-04-10T11:21:49.634Z,475.27
2019-04-10T11:22:49.656Z,476.82
2019-04-10T11:23:49.462Z,471.37
2019-04-10T11:24:49.403Z,476.50
2019-04-10T11:25:50.294Z,479.02
2019-04-10T11:26:50.388Z,465.81
2019-04-10T11:27:50.169Z,471.39
2019-04-10T11:28:49.602Z,480.55
2019-04-10T11:29:49.054Z,469.24
2019-04-10T11:30:49.222Z,475.09
2019-04-10T11:31:49.277Z,476.83
2019-04-10T11:32:50.604Z,475.42
2019-04-10T11:33:51.761Z,465.25
2019-04-10T11:34:49.368Z,471.87
2019-04-10T11:35:48.978Z,467.66
2019-04-10T11:37:11.284Z,474.53
2019-04-10T11:37:53.195Z,467.87
2019-04-10T11:38:49.290Z,468.08
2019-04-10T11:39:50.736Z,473.58
2019-04-10T11:40:49.697Z,455.63
2019-04-10T11:41:50.351Z,483.92
2019-04-10T11:42:48.920Z,462.13
2019-04-10T11:43:50.120Z,453.62
2019-04-10T11:44:51.171Z,440.48
2019-04-10T11:46:51.873Z,474.92
2019-04-10T11:47:51.295Z,461.13
2019-04-10T11:48:49.238Z,476.06
2019-04-10T11:49:49.594Z,462.34
2019-04-10T11:50:48.821Z,470.23
2019-04-10T11:51:50.930Z,428.65
2019-04-10T11:52:53.195Z,469.51
2019-04-10T11:53:53.541Z,467.94
2019-04-10T11:54:50.026Z,450.85
2019-04-10T11:55:51.064Z,453.20
2019-04-10T11:56:52.243Z,435.85
2019-04-10T11:57:51.269Z,472.25
2019-04-10T11:58:54.504Z,425.38
2019-04-10T11:59:49.728Z,443.19
2019-04-10T12:01:53.083Z,463.53
2019-04-10T12:02:52.526Z,443.55
2019-04-10T12:03:51.568Z,445.34
2019-04-10T12:04:55.889Z,462.53
2019-04-10T12:05:51.773Z,443.11
2019-04-10T12:06:52.294Z,418.71
2019-04-10T12:08:10.718Z,445.51
2019-04-10T12:09:13.729Z,447.04
2019-04-10T12:11:49.599Z,464.93
2019-04-10T12:12:48.590Z,449.10
2019-04-10T12:13:48.568Z,446.32
2019-04-10T12:14:48.585Z,425.21
2019-04-10T12:15:48.561Z,431.71
2019-04-10T12:16:49.468Z,441.11
2019-04-10T12:17:48.531Z,440.79
2019-04-10T12:18:48.898Z,423.54
2019-04-10T12:19:48.735Z,451.41
2019-04-10T12:20:49.264Z,431.20
2019-04-10T12:21:48.755Z,451.22
2019-04-10T12:22:48.490Z,409.60
2019-04-10T12:23:50.055Z,429.42
2019-04-10T12:24:49.939Z,459.04
2019-04-10T12:25:49.356Z,474.00
2019-04-10T12:26:48.424Z,474.45
2019-04-10T12:27:49.367Z,449.79
2019-04-10T12:28:48.404Z,474.55
2019-04-10T12:29:48.851Z,457.08
2019-04-10T12:30:48.394Z,424.82
2019-04-10T12:31:48.382Z,452.43
2019-04-10T12:32:49.298Z,431.28